CheckWX is a tool to help pilots better visualize weather data.  It is not intended as a substitute for an official pre-flight weather briefing.

18:51:47 UTC

KCXY METAR
Capital City Airport
Harrisburg, Pennsylvania, USA
Current

56 mins ago

KCXY 171756Z 11006KT 10SM OVC048 01/M08 A3008 RMK AO2 PRESFR SLP191 T00061083 10006 21056 58016
Observed
Feb-17 @ 17:56 UTC
Wind
  • 110° at 6 KTS
Visibility
10 SM
Flight Rules
VFR
Cloud Levels
  • Overcast at 4,800' AGL
Temperature
C / 34°F
Dewpoint
-8°C / 18°F
Humidity
51%
Altimeter
30.08" Hg
Pressure
1019.1 hPa
Previous

2 hours ago

KCXY 171656Z 14005KT 10SM CLR 01/M08 A3015 RMK AO2 SLP215 T00061083
Observed
Feb-17 @ 16:56 UTC
Wind
  • 140° at 5 KTS
Visibility
10 SM
Flight Rules
VFR
Cloud Levels
  • Clear skies
Temperature
C / 34°F
Dewpoint
-8°C / 18°F
Humidity
51%
Altimeter
30.15" Hg
Pressure
1021.5 hPa
Previous

3 hours ago

KCXY 171556Z 11008KT 10SM CLR 00/M09 A3013 RMK AO2 SLP207 T00001089
Observed
Feb-17 @ 15:56 UTC
Wind
  • 110° at 8 KTS
Visibility
10 SM
Flight Rules
VFR
Cloud Levels
  • Clear skies
Temperature
C / 32°F
Dewpoint
-9°C / 16°F
Humidity
51%
Altimeter
30.13" Hg
Pressure
1020.7 hPa